sensor_id;sensor_type;location;lat;lon;timestamp;pressure;altitude;pressure_sealevel;temperature;humidity
58843;BME280;44614;54.356;10.100;2023-05-27T00:02:12;102799.56;;;9.89;72.65
58843;BME280;44614;54.356;10.100;2023-05-27T00:04:37;102813.09;;;9.82;72.84
58843;BME280;44614;54.356;10.100;2023-05-27T00:07:02;102808.28;;;9.76;73.25
58843;BME280;44614;54.356;10.100;2023-05-27T00:09:28;102784.97;;;9.72;73.22
58843;BME280;44614;54.356;10.100;2023-05-27T00:11:53;102794.56;;;9.76;72.72
58843;BME280;44614;54.356;10.100;2023-05-27T00:14:19;102803.16;;;9.73;72.82
58843;BME280;44614;54.356;10.100;2023-05-27T00:16:45;102791.63;;;9.53;73.30
58843;BME280;44614;54.356;10.100;2023-05-27T00:19:11;102799.72;;;9.63;73.65
58843;BME280;44614;54.356;10.100;2023-05-27T00:21:36;102790.44;;;9.56;74.71
58843;BME280;44614;54.356;10.100;2023-05-27T00:24:02;102789.72;;;9.45;74.27
58843;BME280;44614;54.356;10.100;2023-05-27T00:26:28;102821.94;;;9.35;75.14
58843;BME280;44614;54.356;10.100;2023-05-27T00:28:54;102806.44;;;9.18;75.92
58843;BME280;44614;54.356;10.100;2023-05-27T00:31:20;102812.47;;;9.30;75.54
58843;BME280;44614;54.356;10.100;2023-05-27T00:33:45;102803.38;;;9.21;76.41
58843;BME280;44614;54.356;10.100;2023-05-27T00:36:11;102802.66;;;9.11;76.68
58843;BME280;44614;54.356;10.100;2023-05-27T00:38:37;102814.81;;;9.08;76.25
58843;BME280;44614;54.356;10.100;2023-05-27T00:41:03;102804.84;;;9.07;76.02
58843;BME280;44614;54.356;10.100;2023-05-27T00:43:29;102779.31;;;8.98;75.78
58843;BME280;44614;54.356;10.100;2023-05-27T00:45:58;102785.66;;;8.99;75.58
58843;BME280;44614;54.356;10.100;2023-05-27T00:48:23;102808.81;;;9.05;76.01
58843;BME280;44614;54.356;10.100;2023-05-27T00:50:49;102817.03;;;9.05;75.82
58843;BME280;44614;54.356;10.100;2023-05-27T00:53:16;102797.34;;;9.09;75.17
58843;BME280;44614;54.356;10.100;2023-05-27T00:55:42;102780.50;;;8.96;75.32
58843;BME280;44614;54.356;10.100;2023-05-27T00:58:08;102804.16;;;8.97;75.34
58843;BME280;44614;54.356;10.100;2023-05-27T01:00:35;102815.53;;;8.84;76.55
58843;BME280;44614;54.356;10.100;2023-05-27T01:03:03;102803.91;;;8.82;76.13
58843;BME280;44614;54.356;10.100;2023-05-27T01:05:29;102799.13;;;8.84;76.00
58843;BME280;44614;54.356;10.100;2023-05-27T01:08:17;102802.56;;;8.86;75.60
58843;BME280;44614;54.356;10.100;2023-05-27T01:10:50;102819.00;;;8.86;75.52
58843;BME280;44614;54.356;10.100;2023-05-27T01:13:36;102812.13;;;8.82;75.28
58843;BME280;44614;54.356;10.100;2023-05-27T01:16:13;102786.53;;;8.65;75.56
58843;BME280;44614;54.356;10.100;2023-05-27T01:18:42;102767.63;;;8.54;75.35
58843;BME280;44614;54.356;10.100;2023-05-27T01:21:12;102805.38;;;8.68;75.64
58843;BME280;44614;54.356;10.100;2023-05-27T01:23:41;102803.28;;;8.62;75.59
58843;BME280;44614;54.356;10.100;2023-05-27T01:26:07;102808.28;;;8.67;75.50
58843;BME280;44614;54.356;10.100;2023-05-27T01:28:32;102811.34;;;8.64;75.79
58843;BME280;44614;54.356;10.100;2023-05-27T01:31:10;102802.59;;;8.60;75.68
58843;BME280;44614;54.356;10.100;2023-05-27T01:33:38;102797.28;;;8.59;75.67
58843;BME280;44614;54.356;10.100;2023-05-27T01:36:13;102767.53;;;8.38;75.48
58843;BME280;44614;54.356;10.100;2023-05-27T01:38:42;102799.28;;;8.48;76.13
58843;BME280;44614;54.356;10.100;2023-05-27T01:41:09;102787.59;;;8.46;76.24
58843;BME280;44614;54.356;10.100;2023-05-27T01:43:36;102793.09;;;8.46;76.17
58843;BME280;44614;54.356;10.100;2023-05-27T01:46:02;102777.91;;;8.34;75.89
58843;BME280;44614;54.356;10.100;2023-05-27T01:48:28;102791.88;;;8.41;76.03
58843;BME280;44614;54.356;10.100;2023-05-27T01:50:53;102789.53;;;8.28;75.99
58843;BME280;44614;54.356;10.100;2023-05-27T01:53:19;102802.72;;;8.33;76.26
58843;BME280;44614;54.356;10.100;2023-05-27T01:55:44;102804.63;;;8.32;76.53
58843;BME280;44614;54.356;10.100;2023-05-27T01:58:11;102799.44;;;8.29;76.17
58843;BME280;44614;54.356;10.100;2023-05-27T02:00:37;102749.94;;;7.96;76.06
58843;BME280;44614;54.356;10.100;2023-05-27T02:03:02;102790.47;;;8.19;76.39
58843;BME280;44614;54.356;10.100;2023-05-27T02:05:28;102682.25;;;7.54;76.33
58843;BME280;44614;54.356;10.100;2023-05-27T02:07:54;102763.63;;;7.96;76.30
58843;BME280;44614;54.356;10.100;2023-05-27T02:10:20;102769.09;;;7.96;76.38
58843;BME280;44614;54.356;10.100;2023-05-27T02:12:46;102788.53;;;8.11;76.30
58843;BME280;44614;54.356;10.100;2023-05-27T02:15:13;102785.25;;;8.07;76.21
58843;BME280;44614;54.356;10.100;2023-05-27T02:17:41;102777.16;;;7.98;76.52
58843;BME280;44614;54.356;10.100;2023-05-27T02:20:10;102795.97;;;8.01;76.58
58843;BME280;44614;54.356;10.100;2023-05-27T02:22:36;102817.00;;;8.00;76.71
58843;BME280;44614;54.356;10.100;2023-05-27T02:25:01;102789.94;;;7.97;76.54
58843;BME280;44614;54.356;10.100;2023-05-27T02:27:27;102787.03;;;7.91;76.84
58843;BME280;44614;54.356;10.100;2023-05-27T02:29:52;102791.94;;;7.87;76.92
58843;BME280;44614;54.356;10.100;2023-05-27T02:32:17;102788.81;;;7.82;77.02
58843;BME280;44614;54.356;10.100;2023-05-27T02:34:43;102788.97;;;7.80;77.00
58843;BME280;44614;54.356;10.100;2023-05-27T02:37:09;102782.94;;;7.77;77.01
58843;BME280;44614;54.356;10.100;2023-05-27T02:39:35;102784.84;;;7.76;77.24
58843;BME280;44614;54.356;10.100;2023-05-27T02:42:01;102779.53;;;7.75;77.41
58843;BME280;44614;54.356;10.100;2023-05-27T02:44:26;102784.28;;;7.73;77.72
58843;BME280;44614;54.356;10.100;2023-05-27T02:46:52;102791.63;;;7.72;77.45
58843;BME280;44614;54.356;10.100;2023-05-27T02:49:17;102783.59;;;7.71;77.44
58843;BME280;44614;54.356;10.100;2023-05-27T02:51:43;102774.69;;;7.69;77.70
58843;BME280;44614;54.356;10.100;2023-05-27T02:54:08;102774.91;;;7.57;77.79
58843;BME280;44614;54.356;10.100;2023-05-27T02:56:34;102775.22;;;7.54;78.07
58843;BME280;44614;54.356;10.100;2023-05-27T02:58:59;102787.91;;;7.55;78.30
58843;BME280;44614;54.356;10.100;2023-05-27T03:01:25;102787.91;;;7.55;78.25
58843;BME280;44614;54.356;10.100;2023-05-27T03:03:52;102783.59;;;7.53;78.25
58843;BME280;44614;54.356;10.100;2023-05-27T03:06:17;102796.09;;;7.55;78.24
58843;BME280;44614;54.356;10.100;2023-05-27T03:08:42;102785.31;;;7.54;78.27
58843;BME280;44614;54.356;10.100;2023-05-27T03:11:08;102794.66;;;7.51;78.05
58843;BME280;44614;54.356;10.100;2023-05-27T03:13:34;102793.97;;;7.49;78.48
58843;BME280;44614;54.356;10.100;2023-05-27T03:15:59;102786.47;;;7.51;78.25
58843;BME280;44614;54.356;10.100;2023-05-27T03:18:25;102783.91;;;7.50;78.16
58843;BME280;44614;54.356;10.100;2023-05-27T03:20:51;102779.59;;;7.47;78.53
58843;BME280;44614;54.356;10.100;2023-05-27T03:23:17;102778.72;;;7.47;78.92
58843;BME280;44614;54.356;10.100;2023-05-27T03:25:42;102785.06;;;7.47;79.06
58843;BME280;44614;54.356;10.100;2023-05-27T03:28:08;102773.44;;;7.45;78.89
58843;BME280;44614;54.356;10.100;2023-05-27T03:30:34;102782.97;;;7.41;79.07
58843;BME280;44614;54.356;10.100;2023-05-27T03:33:01;102790.31;;;7.41;79.26
58843;BME280;44614;54.356;10.100;2023-05-27T03:35:35;102792.88;;;7.42;79.11
58843;BME280;44614;54.356;10.100;2023-05-27T03:38:01;102789.84;;;7.45;79.19
58843;BME280;44614;54.356;10.100;2023-05-27T03:40:27;102789.66;;;7.47;79.25
58843;BME280;44614;54.356;10.100;2023-05-27T03:42:53;102793.25;;;7.47;79.10
58843;BME280;44614;54.356;10.100;2023-05-27T03:45:21;102795.78;;;7.41;79.62
58843;BME280;44614;54.356;10.100;2023-05-27T03:47:47;102797.63;;;7.40;79.66
58843;BME280;44614;54.356;10.100;2023-05-27T03:50:14;102789.28;;;7.42;79.92
58843;BME280;44614;54.356;10.100;2023-05-27T03:52:39;102784.38;;;7.45;79.77
58843;BME280;44614;54.356;10.100;2023-05-27T03:55:05;102784.06;;;7.48;79.78
58843;BME280;44614;54.356;10.100;2023-05-27T03:57:33;102792.09;;;7.50;79.67
58843;BME280;44614;54.356;10.100;2023-05-27T03:59:58;102778.44;;;7.50;79.61
58843;BME280;44614;54.356;10.100;2023-05-27T04:02:24;102782.88;;;7.51;79.88
58843;BME280;44614;54.356;10.100;2023-05-27T04:04:51;102785.31;;;7.54;80.11
58843;BME280;44614;54.356;10.100;2023-05-27T04:07:19;102787.56;;;7.58;80.14
58843;BME280;44614;54.356;10.100;2023-05-27T04:09:45;102787.25;;;7.62;79.98
58843;BME280;44614;54.356;10.100;2023-05-27T04:12:10;102791.56;;;7.64;nan
58843;BME280;44614;54.356;10.100;2023-05-27T04:14:35;102785.06;;;7.65;80.31
58843;BME280;44614;54.356;10.100;2023-05-27T04:17:01;102785.25;;;7.64;80.92
58843;BME280;44614;54.356;10.100;2023-05-27T04:19:27;102792.25;;;7.66;81.38
58843;BME280;44614;54.356;10.100;2023-05-27T04:21:52;102782.50;;;7.64;81.32
58843;BME280;44614;54.356;10.100;2023-05-27T04:24:17;102796.63;;;7.77;81.15
58843;BME280;44614;54.356;10.100;2023-05-27T04:26:44;102748.91;;;7.53;81.46
58843;BME280;44614;54.356;10.100;2023-05-27T04:29:11;102800.63;;;7.82;81.73
58843;BME280;44614;54.356;10.100;2023-05-27T04:31:38;102792.09;;;7.86;81.85
58843;BME280;44614;54.356;10.100;2023-05-27T04:34:09;102793.47;;;7.90;82.14
58843;BME280;44614;54.356;10.100;2023-05-27T04:36:36;102788.91;;;7.90;82.47
58843;BME280;44614;54.356;10.100;2023-05-27T04:39:12;102793.88;;;7.95;82.74
58843;BME280;44614;54.356;10.100;2023-05-27T04:41:40;102798.03;;;7.99;83.04
58843;BME280;44614;54.356;10.100;2023-05-27T04:44:18;102803.00;;;8.03;83.07
58843;BME280;44614;54.356;10.100;2023-05-27T04:46:47;102787.69;;;8.11;82.78
58843;BME280;44614;54.356;10.100;2023-05-27T04:49:13;102788.75;;;8.18;82.86
58843;BME280;44614;54.356;10.100;2023-05-27T04:51:38;102790.31;;;8.20;83.19
58843;BME280;44614;54.356;10.100;2023-05-27T04:54:05;102794.13;;;8.27;83.50
58843;BME280;44614;54.356;10.100;2023-05-27T04:56:32;102792.63;;;8.33;83.00
58843;BME280;44614;54.356;10.100;2023-05-27T04:58:58;102781.06;;;8.39;82.86
58843;BME280;44614;54.356;10.100;2023-05-27T05:01:29;102777.69;;;8.45;82.71
58843;BME280;44614;54.356;10.100;2023-05-27T05:04:11;102784.22;;;8.52;83.19
58843;BME280;44614;54.356;10.100;2023-05-27T05:06:40;102783.41;;;8.60;83.12
58843;BME280;44614;54.356;10.100;2023-05-27T05:09:06;102788.09;;;8.68;83.51
58843;BME280;44614;54.356;10.100;2023-05-27T05:11:37;102775.94;;;8.70;84.28
58843;BME280;44614;54.356;10.100;2023-05-27T05:14:02;102783.00;;;8.81;85.09
58843;BME280;44614;54.356;10.100;2023-05-27T05:16:28;102789.38;;;8.90;84.63
58843;BME280;44614;54.356;10.100;2023-05-27T05:18:54;102781.72;;;9.01;84.81
58843;BME280;44614;54.356;10.100;2023-05-27T05:21:21;102772.34;;;9.12;84.64
58843;BME280;44614;54.356;10.100;2023-05-27T05:23:46;102775.28;;;9.27;84.88
58843;BME280;44614;54.356;10.100;2023-05-27T05:26:12;102778.59;;;9.39;84.50
58843;BME280;44614;54.356;10.100;2023-05-27T05:28:40;102778.25;;;9.50;84.45
58843;BME280;44614;54.356;10.100;2023-05-27T05:31:07;102776.41;;;9.67;84.14
58843;BME280;44614;54.356;10.100;2023-05-27T05:33:33;102762.34;;;9.86;83.63
58843;BME280;44614;54.356;10.100;2023-05-27T05:35:58;102769.88;;;10.00;83.47
58843;BME280;44614;54.356;10.100;2023-05-27T05:38:35;102780.88;;;10.09;83.58
58843;BME280;44614;54.356;10.100;2023-05-27T05:41:00;102741.59;;;10.00;83.62
58843;BME280;44614;54.356;10.100;2023-05-27T05:43:26;102768.84;;;10.42;83.29
58843;BME280;44614;54.356;10.100;2023-05-27T05:45:52;102778.06;;;10.58;82.79
58843;BME280;44614;54.356;10.100;2023-05-27T05:48:19;102778.19;;;10.72;82.31
58843;BME280;44614;54.356;10.100;2023-05-27T05:50:45;102779.81;;;10.90;82.10
58843;BME280;44614;54.356;10.100;2023-05-27T05:53:11;102769.63;;;11.07;81.54
58843;BME280;44614;54.356;10.100;2023-05-27T05:55:39;102752.25;;;11.06;81.15
58843;BME280;44614;54.356;10.100;2023-05-27T05:58:05;102774.94;;;11.39;80.67
58843;BME280;44614;54.356;10.100;2023-05-27T06:00:31;102776.56;;;11.57;80.54
58843;BME280;44614;54.356;10.100;2023-05-27T06:03:17;102775.09;;;11.69;80.47
58843;BME280;44614;54.356;10.100;2023-05-27T06:05:46;102755.25;;;11.74;80.16
58843;BME280;44614;54.356;10.100;2023-05-27T06:08:12;102774.81;;;11.87;80.16
58843;BME280;44614;54.356;10.100;2023-05-27T06:10:42;102780.41;;;11.93;80.63
58843;BME280;44614;54.356;10.100;2023-05-27T06:13:07;102780.56;;;12.15;80.37
58843;BME280;44614;54.356;10.100;2023-05-27T06:15:37;102732.72;;;12.16;79.50
58843;BME280;44614;54.356;10.100;2023-05-27T06:18:04;102764.66;;;12.55;79.39
58843;BME280;44614;54.356;10.100;2023-05-27T06:20:29;102778.44;;;12.69;78.88
58843;BME280;44614;54.356;10.100;2023-05-27T06:22:55;102779.41;;;12.77;78.89
58843;BME280;44614;54.356;10.100;2023-05-27T06:25:43;102778.91;;;13.03;78.58
58843;BME280;44614;54.356;10.100;2023-05-27T06:28:09;102770.31;;;13.27;78.35
58843;BME280;44614;54.356;10.100;2023-05-27T06:30:36;102782.38;;;13.41;77.70
58843;BME280;44614;54.356;10.100;2023-05-27T06:33:03;102782.72;;;13.53;77.39
58843;BME280;44614;54.356;10.100;2023-05-27T06:35:31;102774.31;;;13.61;77.26
58843;BME280;44614;54.356;10.100;2023-05-27T06:37:58;102753.53;;;13.65;77.26
58843;BME280;44614;54.356;10.100;2023-05-27T06:40:24;102786.47;;;13.88;76.85
58843;BME280;44614;54.356;10.100;2023-05-27T06:42:50;102789.50;;;13.93;75.54
58843;BME280;44614;54.356;10.100;2023-05-27T06:45:45;102772.50;;;14.18;76.03
58843;BME280;44614;54.356;10.100;2023-05-27T06:48:31;102776.19;;;14.53;75.10
58843;BME280;44614;54.356;10.100;2023-05-27T06:50:56;102781.66;;;14.74;74.42
58843;BME280;44614;54.356;10.100;2023-05-27T06:53:22;102776.66;;;14.98;73.87
58843;BME280;44614;54.356;10.100;2023-05-27T06:55:58;102772.13;;;15.31;72.86
58843;BME280;44614;54.356;10.100;2023-05-27T06:58:56;102766.50;;;15.66;71.61
58843;BME280;44614;54.356;10.100;2023-05-27T07:01:22;102773.34;;;15.97;70.72
58843;BME280;44614;54.356;10.100;2023-05-27T07:03:54;102771.84;;;16.27;70.18
58843;BME280;44614;54.356;10.100;2023-05-27T07:06:28;102768.38;;;16.52;69.56
58843;BME280;44614;54.356;10.100;2023-05-27T07:08:55;102776.50;;;16.53;69.08
58843;BME280;44614;54.356;10.100;2023-05-27T07:11:23;102771.16;;;16.52;69.39
58843;BME280;44614;54.356;10.100;2023-05-27T07:13:53;102720.25;;;16.26;69.92
58843;BME280;44614;54.356;10.100;2023-05-27T07:16:22;102755.78;;;16.69;69.29
58843;BME280;44614;54.356;10.100;2023-05-27T07:18:48;102761.31;;;16.83;68.77
58843;BME280;44614;54.356;10.100;2023-05-27T07:21:13;102767.31;;;16.79;67.91
58843;BME280;44614;54.356;10.100;2023-05-27T07:23:39;102763.22;;;16.89;67.72
58843;BME280;44614;54.356;10.100;2023-05-27T07:26:18;102758.97;;;17.31;67.63
58843;BME280;44614;54.356;10.100;2023-05-27T07:28:45;102726.56;;;17.25;66.01
58843;BME280;44614;54.356;10.100;2023-05-27T07:31:19;102765.22;;;17.58;66.40
58843;BME280;44614;54.356;10.100;2023-05-27T07:33:50;102754.47;;;17.68;66.40
58843;BME280;44614;54.356;10.100;2023-05-27T07:36:17;102751.69;;;18.00;65.60
58843;BME280;44614;54.356;10.100;2023-05-27T07:38:43;102753.00;;;18.22;64.28
58843;BME280;44614;54.356;10.100;2023-05-27T07:41:08;102749.09;;;18.05;63.56
58843;BME280;44614;54.356;10.100;2023-05-27T07:43:34;102752.31;;;18.27;63.83
58843;BME280;44614;54.356;10.100;2023-05-27T07:45:59;102742.91;;;18.28;62.24
58843;BME280;44614;54.356;10.100;2023-05-27T07:48:27;102744.72;;;18.16;64.21
58843;BME280;44614;54.356;10.100;2023-05-27T07:50:53;102749.16;;;18.42;63.78
58843;BME280;44614;54.356;10.100;2023-05-27T07:53:18;102747.72;;;18.58;62.68
58843;BME280;44614;54.356;10.100;2023-05-27T07:55:44;102735.53;;;18.77;63.24
58843;BME280;44614;54.356;10.100;2023-05-27T07:58:09;102734.47;;;18.96;62.46
58843;BME280;44614;54.356;10.100;2023-05-27T08:00:48;102735.22;;;19.04;62.25
58843;BME280;44614;54.356;10.100;2023-05-27T08:03:13;102734.66;;;19.13;61.90
58843;BME280;44614;54.356;10.100;2023-05-27T08:06:05;102719.78;;;19.49;61.90
58843;BME280;44614;54.356;10.100;2023-05-27T08:08:53;102730.47;;;19.53;61.30
58843;BME280;44614;54.356;10.100;2023-05-27T08:11:41;102703.53;;;19.35;60.91
58843;BME280;44614;54.356;10.100;2023-05-27T08:14:25;102723.94;;;18.80;61.78
58843;BME280;44614;54.356;10.100;2023-05-27T08:17:15;102725.78;;;18.68;62.58
58843;BME280;44614;54.356;10.100;2023-05-27T08:19:53;102730.41;;;19.11;62.00
58843;BME280;44614;54.356;10.100;2023-05-27T08:22:44;102715.50;;;19.05;60.76
58843;BME280;44614;54.356;10.100;2023-05-27T08:25:23;102709.66;;;19.25;60.38
58843;BME280;44614;54.356;10.100;2023-05-27T08:27:58;102709.00;;;19.83;59.06
58843;BME280;44614;54.356;10.100;2023-05-27T08:30:50;102692.41;;;20.00;58.11
58843;BME280;44614;54.356;10.100;2023-05-27T08:33:36;102694.09;;;20.60;57.00
58843;BME280;44614;54.356;10.100;2023-05-27T08:36:02;102697.63;;;20.32;56.41
58843;BME280;44614;54.356;10.100;2023-05-27T08:38:28;102695.22;;;20.00;56.94
58843;BME280;44614;54.356;10.100;2023-05-27T08:41:03;102690.47;;;20.24;57.28
58843;BME280;44614;54.356;10.100;2023-05-27T08:43:30;102680.16;;;20.25;55.85
58843;BME280;44614;54.356;10.100;2023-05-27T08:45:58;102683.31;;;20.05;56.67
58843;BME280;44614;54.356;10.100;2023-05-27T08:48:25;102693.47;;;19.76;56.28
58843;BME280;44614;54.356;10.100;2023-05-27T08:50:50;102692.25;;;19.71;56.63
58843;BME280;44614;54.356;10.100;2023-05-27T08:53:17;102680.38;;;19.76;57.24
58843;BME280;44614;54.356;10.100;2023-05-27T08:55:43;102678.09;;;20.32;56.43
58843;BME280;44614;54.356;10.100;2023-05-27T08:58:10;102669.72;;;20.43;54.53
58843;BME280;44614;54.356;10.100;2023-05-27T09:00:41;102667.56;;;20.34;55.34
58843;BME280;44614;54.356;10.100;2023-05-27T09:03:18;102660.97;;;20.40;55.09
58843;BME280;44614;54.356;10.100;2023-05-27T09:05:44;102658.81;;;20.42;48.86
58843;BME280;44614;54.356;10.100;2023-05-27T09:08:10;102653.59;;;20.86;55.01
58843;BME280;44614;54.356;10.100;2023-05-27T09:10:39;102661.25;;;21.19;53.62
58843;BME280;44614;54.356;10.100;2023-05-27T09:13:05;102653.28;;;21.28;54.18
58843;BME280;44614;54.356;10.100;2023-05-27T09:15:32;102639.53;;;21.09;54.00
58843;BME280;44614;54.356;10.100;2023-05-27T09:17:58;102649.97;;;21.14;54.01
58843;BME280;44614;54.356;10.100;2023-05-27T09:20:27;102639.47;;;21.50;53.52
58843;BME280;44614;54.356;10.100;2023-05-27T09:22:57;102641.94;;;21.80;52.53
58843;BME280;44614;54.356;10.100;2023-05-27T09:25:27;102638.53;;;21.78;52.73
58843;BME280;44614;54.356;10.100;2023-05-27T09:27:53;102646.66;;;21.96;52.43
58843;BME280;44614;54.356;10.100;2023-05-27T09:30:19;102638.66;;;22.05;44.29
58843;BME280;44614;54.356;10.100;2023-05-27T09:32:46;102636.97;;;22.21;51.57
58843;BME280;44614;54.356;10.100;2023-05-27T09:35:11;102627.88;;;22.30;51.57
58843;BME280;44614;54.356;10.100;2023-05-27T09:37:37;102615.84;;;22.30;50.96
58843;BME280;44614;54.356;10.100;2023-05-27T09:40:06;102629.72;;;22.63;50.97
58843;BME280;44614;54.356;10.100;2023-05-27T09:42:43;102627.16;;;22.84;49.88
58843;BME280;44614;54.356;10.100;2023-05-27T09:45:14;102623.59;;;23.16;45.83
58843;BME280;44614;54.356;10.100;2023-05-27T09:47:41;102629.63;;;23.02;49.48
58843;BME280;44614;54.356;10.100;2023-05-27T09:50:11;102617.41;;;23.14;49.40
58843;BME280;44614;54.356;10.100;2023-05-27T09:52:39;102626.09;;;23.39;48.80
58843;BME280;44614;54.356;10.100;2023-05-27T09:55:10;102624.59;;;23.64;48.45
58843;BME280;44614;54.356;10.100;2023-05-27T09:57:39;102621.84;;;23.69;47.63
58843;BME280;44614;54.356;10.100;2023-05-27T10:00:07;102620.31;;;23.56;47.94
58843;BME280;44614;54.356;10.100;2023-05-27T10:02:46;102620.28;;;23.83;47.36
58843;BME280;44614;54.356;10.100;2023-05-27T10:05:13;102627.88;;;23.88;47.23
58843;BME280;44614;54.356;10.100;2023-05-27T10:07:42;102618.88;;;24.28;46.32
58843;BME280;44614;54.356;10.100;2023-05-27T10:10:15;102618.59;;;24.24;45.29
58843;BME280;44614;54.356;10.100;2023-05-27T10:12:46;102610.63;;;24.06;46.07
58843;BME280;44614;54.356;10.100;2023-05-27T10:15:27;102615.72;;;24.14;40.46
58843;BME280;44614;54.356;10.100;2023-05-27T10:18:02;102606.88;;;23.90;45.71
58843;BME280;44614;54.356;10.100;2023-05-27T10:20:38;102612.00;;;24.03;45.26
58843;BME280;44614;54.356;10.100;2023-05-27T10:23:14;102609.50;;;24.07;45.11
58843;BME280;44614;54.356;10.100;2023-05-27T10:28:30;102604.13;;;24.00;38.67
58843;BME280;44614;54.356;10.100;2023-05-27T10:31:09;102602.56;;;23.45;43.64
58843;BME280;44614;54.356;10.100;2023-05-27T10:33:47;102583.75;;;23.41;45.04
58843;BME280;44614;54.356;10.100;2023-05-27T10:36:24;102590.84;;;23.86;43.73
58843;BME280;44614;54.356;10.100;2023-05-27T10:38:58;102598.59;;;23.73;44.58
58843;BME280;44614;54.356;10.100;2023-05-27T10:41:24;102592.75;;;23.75;44.11
58843;BME280;44614;54.356;10.100;2023-05-27T10:43:55;102594.31;;;23.66;36.29
58843;BME280;44614;54.356;10.100;2023-05-27T10:46:22;102599.78;;;23.50;44.28
58843;BME280;44614;54.356;10.100;2023-05-27T10:48:47;102587.28;;;23.63;38.96
58843;BME280;44614;54.356;10.100;2023-05-27T10:51:12;102580.59;;;24.06;43.91
58843;BME280;44614;54.356;10.100;2023-05-27T10:53:38;102571.00;;;24.50;37.46
58843;BME280;44614;54.356;10.100;2023-05-27T10:56:04;102571.91;;;24.66;43.26
58843;BME280;44614;54.356;10.100;2023-05-27T10:58:29;102578.41;;;25.02;37.20
58843;BME280;44614;54.356;10.100;2023-05-27T11:01:01;102560.19;;;25.40;42.05
58843;BME280;44614;54.356;10.100;2023-05-27T11:03:32;102569.19;;;25.32;42.22
58843;BME280;44614;54.356;10.100;2023-05-27T11:06:02;102558.47;;;25.03;40.72
58843;BME280;44614;54.356;10.100;2023-05-27T11:08:28;102566.47;;;23.91;43.76
58843;BME280;44614;54.356;10.100;2023-05-27T11:11:02;102562.97;;;24.16;42.20
58843;BME280;44614;54.356;10.100;2023-05-27T11:13:44;102559.53;;;24.72;41.62
58843;BME280;44614;54.356;10.100;2023-05-27T11:16:12;102561.03;;;25.10;41.45
58843;BME280;44614;54.356;10.100;2023-05-27T11:18:43;102557.94;;;25.47;40.73
58843;BME280;44614;54.356;10.100;2023-05-27T11:21:10;102565.56;;;25.26;40.72
58843;BME280;44614;54.356;10.100;2023-05-27T11:23:43;102554.28;;;25.32;40.47
58843;BME280;44614;54.356;10.100;2023-05-27T11:26:21;102555.63;;;24.83;37.07
58843;BME280;44614;54.356;10.100;2023-05-27T11:28:51;102553.06;;;24.03;41.60
58843;BME280;44614;54.356;10.100;2023-05-27T11:31:18;102545.47;;;23.62;43.43
58843;BME280;44614;54.356;10.100;2023-05-27T11:33:46;102540.16;;;23.23;43.43
58843;BME280;44614;54.356;10.100;2023-05-27T11:36:13;102553.69;;;23.68;43.03
58843;BME280;44614;54.356;10.100;2023-05-27T11:38:57;102542.41;;;23.26;41.07
58843;BME280;44614;54.356;10.100;2023-05-27T11:41:25;102535.38;;;22.91;43.04
58843;BME280;44614;54.356;10.100;2023-05-27T11:43:59;102535.81;;;22.29;43.82
58843;BME280;44614;54.356;10.100;2023-05-27T11:46:46;102529.78;;;22.91;42.52
58843;BME280;44614;54.356;10.100;2023-05-27T11:49:13;102529.13;;;22.84;42.13
58843;BME280;44614;54.356;10.100;2023-05-27T11:51:44;102523.78;;;22.55;43.13
58843;BME280;44614;54.356;10.100;2023-05-27T11:54:22;102520.75;;;22.89;39.56
58843;BME280;44614;54.356;10.100;2023-05-27T11:56:48;102519.03;;;22.83;42.40
58843;BME280;44614;54.356;10.100;2023-05-27T11:59:15;102514.53;;;23.09;41.65
58843;BME280;44614;54.356;10.100;2023-05-27T12:01:41;102506.75;;;22.89;41.80
58843;BME280;44614;54.356;10.100;2023-05-27T12:04:07;102470.78;;;23.03;41.10
58843;BME280;44614;54.356;10.100;2023-05-27T12:06:33;102494.25;;;23.29;41.23
58843;BME280;44614;54.356;10.100;2023-05-27T12:08:58;102489.50;;;23.72;37.65
58843;BME280;44614;54.356;10.100;2023-05-27T12:11:23;102450.81;;;22.94;40.54
58843;BME280;44614;54.356;10.100;2023-05-27T12:13:48;102486.06;;;22.63;39.24
58843;BME280;44614;54.356;10.100;2023-05-27T12:16:14;102483.97;;;22.48;41.92
58843;BME280;44614;54.356;10.100;2023-05-27T12:18:40;102472.25;;;23.10;41.35
58843;BME280;44614;54.356;10.100;2023-05-27T12:21:07;102460.59;;;23.71;40.46
58843;BME280;44614;54.356;10.100;2023-05-27T12:23:32;102469.84;;;23.67;36.73
58843;BME280;44614;54.356;10.100;2023-05-27T12:25:58;102466.75;;;23.26;40.08
58843;BME280;44614;54.356;10.100;2023-05-27T12:28:23;102479.31;;;22.59;41.09
58843;BME280;44614;54.356;10.100;2023-05-27T12:30:49;102462.56;;;22.64;41.11
58843;BME280;44614;54.356;10.100;2023-05-27T12:33:14;102458.75;;;22.48;41.01
58843;BME280;44614;54.356;10.100;2023-05-27T12:35:40;102452.53;;;21.97;41.98
58843;BME280;44614;54.356;10.100;2023-05-27T12:38:06;102457.03;;;21.76;39.51
58843;BME280;44614;54.356;10.100;2023-05-27T12:40:31;102446.38;;;21.95;41.90
58843;BME280;44614;54.356;10.100;2023-05-27T12:42:57;102441.63;;;22.72;40.76
58843;BME280;44614;54.356;10.100;2023-05-27T12:45:24;102451.00;;;23.20;39.31
58843;BME280;44614;54.356;10.100;2023-05-27T12:47:52;102437.81;;;22.83;39.90
58843;BME280;44614;54.356;10.100;2023-05-27T12:50:17;102434.13;;;23.09;39.41
58843;BME280;44614;54.356;10.100;2023-05-27T12:52:43;102426.13;;;22.91;39.67
58843;BME280;44614;54.356;10.100;2023-05-27T12:55:13;102420.06;;;22.72;39.98
58843;BME280;44614;54.356;10.100;2023-05-27T12:57:38;102433.06;;;22.51;39.93